STN weather

London Stansted Airport
London, England, United Kingdom

Public forecast

Using degrees Celsius for public forecast. Weather courtesy of forecast.io.

METAR (pilot weather report)

Retrieved 2019/04/21 12:20 UTC (0 seconds ago):

EGSS 211220Z AUTO 12010KT 090V160 9999 NCD 21/07 Q1020

TAF (pilot weather forecast)

Retrieved 2019/04/21 12:00 UTC (20 minutes ago):

TAF EGSS 211102Z 2112/2218 13006KT CAVOK PROB30 2204/2207 8000